CheckWX is a tool to help pilots better visualize weather data.  It is not intended as a substitute for an official pre-flight weather briefing.

00:41:03 UTC

KBTM TAF
Bert Mooney Airport
Butte, Montana, USA
KBTM 262329Z 2700/2724 30010KT P6SM -SHRASN BKN050 OVC080 TEMPO 2701/2703 3SM -SHSN BKN030 OVC050 FM270600 29005KT P6SM VCSH BKN050 OVC080 FM272000 17010KT 4SM -RASN BKN025 OVC050

Mar-27@
00:00 UTC

Mar-27 @ 00:00 UTC

Mar-27@
06:00 UTC

Mar-27 @ 06:00 UTC

KBTM 262329Z 2700/2724 30010KT P6SM -SHRASN BKN050 OVC080
Wind
  • 300° at 10 KTS
Conditions
Light Rain, Light Snow
Cloud Levels
  • Broken at 5,000' AGL
  • Overcast at 8,000' AGL

Mar-27@
01:00 UTC

Mar-27 @ 01:00 UTC

Mar-27@
03:00 UTC

Mar-27 @ 03:00 UTC

TEMPO 2701/2703 3SM -SHSN BKN030 OVC050

Temporary

Temporary Changes expected for less than half the time period

Conditions
Light Snow
Cloud Levels
  • Broken at 3,000' AGL
  • Overcast at 5,000' AGL

Mar-27@
06:00 UTC

Mar-27 @ 06:00 UTC

Mar-27@
20:00 UTC

Mar-27 @ 20:00 UTC

FM270600 29005KT P6SM VCSH BKN050 OVC080

From

From Standard forecast or significant change

Wind
  • 290° at 5 KTS
Cloud Levels
  • Broken at 5,000' AGL
  • Overcast at 8,000' AGL

Mar-27@
20:00 UTC

Mar-27 @ 20:00 UTC

Mar-28@
00:00 UTC

Mar-28 @ 00:00 UTC

FM272000 17010KT 4SM -RASN BKN025 OVC050

From

From Standard forecast or significant change

Wind
  • 170° at 10 KTS
Conditions
Light Rain, Light Snow
Cloud Levels
  • Broken at 2,500' AGL
  • Overcast at 5,000' AGL